Time;durP1;ratioP1;P1;durP2;ratioP2;P2;SDS_P1;SDS_P2;PMS_P1;PMS_P2;Temp;Humidity;BMP_temperature;BMP_pressure;BME280_temperature;BME280_humidity;BME280_pressure;Samples;Min_cycle;Max_cycle;Signal;HPM_P1;HPM_P2
2022/11/26 00:00:41;;;;;;;3.70;1.70;;;;;;;;;;5052738;28;20938;-84
2022/11/26 00:03:10;;;;;;;4.73;1.60;;;;;;;;;;5051372;28;20450;-83
2022/11/26 00:05:37;;;;;;;3.17;1.40;;;;;;;;;;5052585;28;20952;-83
2022/11/26 00:08:04;;;;;;;3.33;1.30;;;;;;;;;;5052404;28;20446;-83
2022/11/26 00:10:35;;;;;;;5.20;1.43;;;;;;;;;;5052142;28;20470;-83
2022/11/26 00:13:02;;;;;;;3.10;1.23;;;;;;;;;;5052334;28;20496;-83
2022/11/26 00:15:31;;;;;;;7.63;1.57;;;;;;;;;;5052626;28;20469;-83
2022/11/26 00:17:58;;;;;;;3.30;1.80;;;;;;;;;;5053984;28;20456;-83
2022/11/26 00:20:29;;;;;;;2.23;1.13;;;;;;;;;;5056069;28;20945;-83
2022/11/26 00:23:00;;;;;;;4.93;1.00;;;;;;;;;;5056157;28;20450;-83
2022/11/26 00:25:31;;;;;;;4.10;2.00;;;6.20;99.90;;;;;;5056106;28;20529;-83
2022/11/26 00:27:59;;;;;;;5.43;1.60;;;;;;;;;;5056066;28;20450;-83
2022/11/26 00:30:27;;;;;;;4.40;1.50;;;6.20;99.90;;;;;;5055826;28;20457;-83
2022/11/26 00:32:55;;;;;;;6.07;1.77;;;;;;;;;;5054512;28;20494;-84
2022/11/26 00:35:22;;;;;;;3.77;1.80;;;;;;;;;;5055956;28;20465;-83
2022/11/26 00:37:52;;;;;;;5.43;1.50;;;;;;;;;;5056061;28;20455;-84
2022/11/26 00:40:21;;;;;;;3.97;1.80;;;;;;;;;;5055742;28;20537;-84
2022/11/26 00:42:48;;;;;;;5.70;1.90;;;;;;;;;;5055591;28;20466;-83
2022/11/26 00:45:19;;;;;;;2.97;1.93;;;;;;;;;;5055512;28;20469;-83
2022/11/26 00:47:46;;;;;;;6.20;2.30;;;;;;;;;;5054298;28;20493;-84
2022/11/26 00:50:16;;;;;;;5.70;2.47;;;;;;;;;;5055398;28;20442;-89
2022/11/26 00:52:45;;;;;;;5.97;2.17;;;6.30;99.90;;;;;;5055499;28;20482;-83
2022/11/26 00:55:21;;;;;;;8.03;2.73;;;6.30;99.90;;;;;;5055449;28;20986;-83
2022/11/26 00:57:48;;;;;;;14.00;3.03;;;;;;;;;;5056740;28;20450;-87
2022/11/26 01:00:16;;;;;;;5.10;1.90;;;;;;;;;;5055999;28;20474;-83
2022/11/26 01:02:43;;;;;;;4.60;2.47;;;;;;;;;;5065700;28;20453;-83
2022/11/26 01:05:11;;;;;;;7.70;2.37;;;;;;;;;;5066227;28;20449;-83
2022/11/26 01:07:38;;;;;;;4.17;2.00;;;;;;;;;;5055556;28;20445;-82
2022/11/26 01:10:06;;;;;;;4.50;1.93;;;;;;;;;;5055037;28;20976;-83
2022/11/26 01:12:34;;;;;;;4.47;1.80;;;;;;;;;;5055376;28;20493;-85
2022/11/26 01:15:01;;;;;;;6.40;2.07;;;;;;;;;;5055247;28;20451;-82
2022/11/26 01:17:28;;;;;;;5.73;2.30;;;;;;;;;;5053900;28;20446;-83
2022/11/26 01:19:55;;;;;;;4.30;1.67;;;;;;;;;;5054914;28;20447;-83
2022/11/26 01:22:24;;;;;;;4.30;1.60;;;;;;;;;;5054826;28;20446;-83
2022/11/26 01:24:51;;;;;;;5.63;1.93;;;;;;;;;;5054677;28;20561;-83
2022/11/26 01:27:19;;;;;;;9.70;3.17;;;;;;;;;;5054775;28;20447;-84
2022/11/26 01:29:48;;;;;;;7.73;2.27;;;;;;;;;;5054626;28;20457;-87
2022/11/26 01:32:15;;;;;;;12.20;2.00;;;;;;;;;;5053508;28;20450;-83
2022/11/26 01:34:42;;;;;;;7.03;2.40;;;;;;;;;;5054439;28;20522;-83
2022/11/26 01:37:13;;;;;;;6.80;2.07;;;;;;;;;;5054615;28;20453;-86
2022/11/26 01:39:41;;;;;;;4.60;2.50;;;;;;;;;;5054418;28;20453;-83
2022/11/26 01:42:15;;;;;;;4.33;2.00;;;;;;;;;;5054429;28;20438;-82
2022/11/26 01:44:42;;;;;;;6.47;2.50;;;;;;;;;;5054484;28;20454;-83
2022/11/26 01:47:22;;;;;;;10.07;2.17;;;;;;;;;;5053002;28;20974;-83
2022/11/26 01:50:26;;;;;;;4.47;1.77;;;6.00;99.90;;;;;;5054320;28;20442;-83
2022/11/26 01:52:53;;;;;;;2.60;1.93;;;;;;;;;;5054252;28;20492;-85
2022/11/26 01:55:20;;;;;;;5.57;2.20;;;;;;;;;;5054603;28;20449;-87
2022/11/26 01:57:48;;;;;;;4.50;2.20;;;;;;;;;;5054586;28;20451;-82
2022/11/26 02:00:15;;;;;;;5.60;2.23;;;;;;;;;;5053876;28;20533;-83
2022/11/26 02:02:45;;;;;;;2.73;1.80;;;;;;;;;;5052849;28;20529;-83
2022/11/26 02:05:15;;;;;;;2.97;2.00;;;;;;;;;;5054268;28;20814;-83
2022/11/26 02:07:43;;;;;;;4.27;2.20;;;;;;;;;;5054120;28;21059;-85
2022/11/26 02:10:10;;;;;;;5.30;1.80;;;;;;;;;;5053826;28;20557;-83
2022/11/26 02:12:38;;;;;;;5.90;2.10;;;;;;;;;;5053732;28;20529;-87
2022/11/26 02:15:06;;;;;;;4.60;2.40;;;;;;;;;;5054248;28;20549;-83
2022/11/26 02:17:35;;;;;;;8.17;3.03;;;;;;;;;;5052611;28;20977;-89
2022/11/26 02:20:11;;;;;;;7.10;2.27;;;;;;;;;;5053960;28;20450;-84
2022/11/26 02:22:50;;;;;;;5.23;2.23;;;;;;;;;;5054245;28;20525;-86
2022/11/26 02:25:19;;;;;;;4.23;2.13;;;;;;;;;;5054123;28;20486;-86
2022/11/26 02:28:07;;;;;;;8.53;2.67;;;;;;;;;;5054328;28;20529;-87
2022/11/26 02:30:37;;;;;;;5.43;3.13;;;;;;;;;;5036962;28;20445;-85
2022/11/26 02:33:06;;;;;;;4.90;2.10;;;;;;;;;;5052705;28;20492;-84
2022/11/26 02:35:37;;;;;;;5.03;2.70;;;;;;;;;;5053749;28;20443;-85
2022/11/26 02:38:06;;;;;;;6.00;2.97;;;;;;;;;;5053393;28;20446;-83
2022/11/26 02:40:33;;;;;;;8.60;2.87;;;;;;;;;;5053022;28;20454;-82
2022/11/26 02:43:00;;;;;;;8.63;3.40;;;;;;;;;;5053360;28;20462;-83
2022/11/26 02:45:29;;;;;;;5.83;2.70;;;;;;;;;;5053438;28;20450;-84
2022/11/26 02:47:59;;;;;;;3.27;2.10;;;;;;;;;;5052211;28;20447;-83
2022/11/26 02:50:29;;;;;;;4.80;2.30;;;;;;;;;;5053174;28;20942;-86
2022/11/26 02:52:57;;;;;;;6.17;2.73;;;;;;;;;;5053288;28;20476;-86
2022/11/26 02:55:27;;;;;;;6.87;2.60;;;;;;;;;;5053218;28;20493;-83
2022/11/26 02:57:54;;;;;;;6.40;2.73;;;;;;;;;;5053232;28;20443;-83
2022/11/26 03:00:22;;;;;;;10.53;2.50;;;;;;;;;;5053253;28;20464;-82
2022/11/26 03:02:50;;;;;;;5.80;3.30;;;;;;;;;;5051945;28;20496;-83
2022/11/26 03:05:19;;;;;;;5.83;2.67;;;;;;;;;;5053120;28;21033;-82
2022/11/26 03:07:47;;;;;;;9.80;2.87;;;;;;;;;;5053256;28;20463;-86
2022/11/26 03:10:14;;;;;;;4.37;2.00;;;;;;;;;;5053026;28;20479;-82
2022/11/26 03:12:41;;;;;;;6.10;2.63;;;;;;;;;;5052822;28;20519;-83
2022/11/26 03:15:08;;;;;;;5.13;2.63;;;;;;;;;;5052980;28;20512;-83
2022/11/26 03:17:35;;;;;;;3.30;2.07;;;;;;;;;;5051790;28;20460;-84
2022/11/26 03:20:03;;;;;;;10.73;2.10;;;;;;;;;;5052940;28;20451;-82
2022/11/26 03:22:32;;;;;;;8.47;2.77;;;;;;;;;;5052997;28;20447;-83
2022/11/26 03:24:59;;;;;;;6.00;2.57;;;;;;;;;;5052857;28;20442;-83
2022/11/26 03:27:26;;;;;;;7.83;2.30;;;;;;;;;;5052963;28;20451;-86
2022/11/26 03:29:53;;;;;;;5.23;2.30;;;;;;;;;;5052888;28;20816;-83
2022/11/26 03:32:20;;;;;;;7.77;3.00;;;;;;;;;;5051686;28;20457;-83
2022/11/26 03:34:47;;;;;;;4.20;2.13;;;;;;;;;;5052773;28;20498;-83
2022/11/26 03:37:14;;;;;;;4.60;2.40;;;;;;;;;;5053096;28;20450;-84
2022/11/26 03:39:43;;;;;;;4.13;2.10;;;;;;;;;;5052989;28;20459;-84
2022/11/26 03:42:10;;;;;;;5.07;2.20;;;;;;;;;;5053060;28;20450;-83
2022/11/26 03:44:37;;;;;;;7.10;2.87;;;;;;;;;;5052649;28;20496;-83
2022/11/26 03:47:04;;;;;;;5.13;1.87;;;;;;;;;;5051611;28;20482;-83
2022/11/26 03:49:31;;;;;;;2.80;1.73;;;;;;;;;;5052906;28;20453;-85
2022/11/26 03:51:59;;;;;;;4.93;2.43;;;;;;;;;;5054034;28;20446;-84
2022/11/26 03:54:26;;;;;;;5.63;2.20;;;;;;;;;;5056388;28;20490;-82
2022/11/26 03:56:54;;;;;;;11.53;3.43;;;;;;;;;;5056832;28;20538;-87
2022/11/26 03:59:21;;;;;;;17.27;2.80;;;;;;;;;;5056472;28;20456;-83
2022/11/26 04:01:49;;;;;;;8.30;2.37;;;;;;;;;;5055419;28;20446;-83
2022/11/26 04:04:16;;;;;;;3.50;2.33;;;;;;;;;;5056827;28;20489;-82
2022/11/26 04:06:43;;;;;;;4.83;2.10;;;;;;;;;;5059565;28;20457;-82
2022/11/26 04:09:10;;;;;;;4.10;2.30;;;;;;;;;;5070101;28;20550;-82
2022/11/26 04:11:37;;;;;;;5.17;2.73;;;;;;;;;;5059766;28;20963;-82
2022/11/26 04:14:06;;;;;;;5.63;2.20;;;;;;;;;;5056111;28;20501;-83
2022/11/26 04:16:33;;;;;;;7.47;2.47;;;;;;;;;;5055191;28;20461;-83
2022/11/26 04:19:00;;;;;;;5.37;2.00;;;;;;;;;;5056307;28;20930;-83
2022/11/26 04:21:27;;;;;;;3.77;2.13;;;;;;;;;;5056093;28;20452;-84
2022/11/26 04:23:54;;;;;;;4.70;2.47;;;;;;;;;;5055912;28;20596;-84
2022/11/26 04:26:21;;;;;;;4.60;2.20;;;;;;;;;;5055821;28;20461;-85
2022/11/26 04:28:49;;;;;;;5.03;2.27;;;;;;;;;;5055890;28;21071;-84
2022/11/26 04:31:17;;;;;;;5.70;3.30;;;;;;;;;;5054596;28;20449;-84
2022/11/26 04:33:44;;;;;;;5.30;2.47;;;;;;;;;;5055655;28;20486;-83
2022/11/26 04:36:12;;;;;;;12.80;2.70;;;;;;;;;;5055705;28;20455;-83
2022/11/26 04:38:39;;;;;;;4.13;2.50;;;;;;;;;;5055586;28;20971;-84
2022/11/26 04:41:06;;;;;;;3.30;2.10;;;;;;;;;;5055568;28;20457;-84
2022/11/26 04:43:33;;;;;;;6.53;2.30;;;;;;;;;;5055742;28;20824;-84
2022/11/26 04:46:01;;;;;;;5.33;2.73;;;;;;;;;;5054941;28;20479;-83
2022/11/26 04:48:29;;;;;;;3.60;2.13;;;;;;;;;;5054956;28;20452;-83
2022/11/26 04:50:56;;;;;;;8.23;3.40;;;;;;;;;;5055507;28;20447;-84
2022/11/26 04:53:24;;;;;;;3.93;1.87;;;;;;;;;;5054934;28;20450;-83
2022/11/26 04:55:51;;;;;;;4.50;2.27;;;;;;;;;;5055406;28;20953;-86
2022/11/26 04:58:19;;;;;;;3.20;2.03;;;;;;;;;;5055269;28;20457;-83
2022/11/26 05:00:46;;;;;;;3.27;2.10;;;;;;;;;;5055273;28;20454;-84
2022/11/26 05:03:13;;;;;;;4.67;2.20;;;;;;;;;;5053746;28;20570;-84
2022/11/26 05:05:42;;;;;;;7.50;2.73;;;;;;;;;;5055282;28;20537;-83
2022/11/26 05:08:09;;;;;;;3.97;1.90;;;;;;;;;;5055041;28;20812;-83
2022/11/26 05:10:36;;;;;;;4.67;2.60;;;;;;;;;;5054839;28;20485;-85
2022/11/26 05:13:03;;;;;;;7.40;2.90;;;;;;;;;;5054972;28;20460;-84
2022/11/26 05:15:30;;;;;;;6.03;2.47;;;;;;;;;;5054775;28;21008;-84
2022/11/26 05:17:57;;;;;;;7.47;2.70;;;;;;;;;;5053759;28;20457;-83
2022/11/26 05:20:24;;;;;;;9.50;2.30;;;;;;;;;;5054835;28;20454;-82
2022/11/26 05:22:53;;;;;;;4.43;2.50;;;;;;;;;;5054587;28;20465;-85
2022/11/26 05:25:20;;;;;;;3.97;2.67;;;;;;;;;;5054798;28;20462;-88
2022/11/26 05:27:47;;;;;;;5.00;1.90;;;;;;;;;;5054672;28;20545;-82
2022/11/26 05:30:15;;;;;;;4.50;2.50;;;;;;;;;;5054538;28;20451;-82
2022/11/26 05:32:42;;;;;;;6.63;2.70;;;;;;;;;;5053351;28;20462;-85
2022/11/26 05:35:09;;;;;;;9.70;2.97;;;;;;;;;;5054294;28;20500;-85
2022/11/26 05:37:36;;;;;;;4.23;2.60;;;;;;;;;;5054502;28;20447;-82
2022/11/26 05:40:06;;;;;;;11.63;3.10;;;;;;;;;;5054572;28;20455;-83
2022/11/26 05:42:33;;;;;;;14.67;2.60;;;;;;;;;;5054604;28;20508;-83
2022/11/26 05:45:00;;;;;;;3.30;2.80;;;;;;;;;;5054330;28;20986;-83
2022/11/26 05:47:28;;;;;;;6.90;3.20;;;;;;;;;;5053211;28;20451;-83
2022/11/26 05:49:55;;;;;;;5.20;2.70;;;;;;;;;;5054323;28;20537;-82
2022/11/26 05:52:22;;;;;;;3.80;2.03;;;;;;;;;;5054149;28;20800;-84
2022/11/26 05:54:49;;;;;;;4.97;2.60;;;;;;;;;;5054131;28;20515;-85
2022/11/26 05:57:18;;;;;;;11.53;2.50;;;;;;;;;;5054296;28;20455;-83
2022/11/26 05:59:47;;;;;;;3.60;2.60;;;;;;;;;;5054122;28;20454;-83
2022/11/26 06:02:14;;;;;;;9.63;3.73;;;;;;;;;;5052976;28;20455;-83
2022/11/26 06:04:42;;;;;;;3.90;2.87;;;;;;;;;;5053908;28;20496;-83
2022/11/26 06:07:09;;;;;;;4.70;2.40;;;;;;;;;;5054172;28;20485;-85
2022/11/26 06:09:37;;;;;;;4.57;2.57;;;;;;;;;;5053755;28;20486;-83
2022/11/26 06:12:04;;;;;;;3.23;2.07;;;;;;;;;;5053681;28;20465;-83
2022/11/26 06:14:33;;;;;;;8.27;2.53;;;;;;;;;;5053222;28;20880;-86
2022/11/26 06:17:00;;;;;;;6.20;3.20;;;;;;;;;;5052549;28;20447;-82
2022/11/26 06:19:27;;;;;;;3.80;2.50;;;;;;;;;;5053697;28;20449;-86
2022/11/26 06:21:54;;;;;;;7.00;3.03;;;;;;;;;;5053719;28;20453;-83
2022/11/26 06:24:21;;;;;;;7.17;3.00;;;;;;;;;;5053724;28;20451;-83
2022/11/26 06:26:48;;;;;;;4.20;2.90;;;;;;;;;;5053730;28;20446;-82
2022/11/26 06:29:15;;;;;;;5.23;3.00;;;;;;;;;;5053739;28;20442;-82
2022/11/26 06:31:44;;;;;;;7.73;3.03;;;;;;;;;;5052297;28;20454;-84
2022/11/26 06:34:11;;;;;;;3.43;2.30;;;;;;;;;;5053592;28;20486;-84
2022/11/26 06:36:38;;;;;;;4.93;3.10;;;;;;;;;;5053454;28;20446;-83
2022/11/26 06:39:05;;;;;;;5.77;2.93;;;;;;;;;;5053692;28;20463;-83
2022/11/26 06:41:32;;;;;;;7.57;3.00;;;;;;;;;;5053285;28;20455;-83
2022/11/26 06:43:59;;;;;;;5.30;2.60;;;;;;;;;;5053222;28;20459;-83
2022/11/26 06:46:27;;;;;;;4.23;2.30;;;;;;;;;;5052168;28;20477;-82
2022/11/26 06:48:55;;;;;;;4.30;2.53;;;;;;;;;;5053212;28;20442;-82
2022/11/26 06:51:26;;;;;;;9.90;5.30;;;;;;;;;;5053178;28;20453;-88
2022/11/26 06:53:53;;;;;;;10.80;6.63;;;;;;;;;;5053223;28;20612;-87
2022/11/26 06:56:20;;;;;;;9.03;6.30;;;;;;;;;;5053945;28;20461;-82
2022/11/26 06:58:48;;;;;;;10.00;5.93;;;;;;;;;;5053219;28;20450;-84
2022/11/26 07:01:17;;;;;;;8.33;5.53;;;2.30;99.90;;;;;;5051910;28;20446;-80
2022/11/26 07:03:44;;;;;;;8.37;5.33;;;;;;;;;;5052954;28;20454;-79
2022/11/26 07:06:20;;;;;;;6.33;3.70;;;;;;;;;;5052979;28;20456;-79
2022/11/26 07:08:47;;;;;;;8.40;3.50;;;;;;;;;;5052939;28;20480;-80
2022/11/26 07:11:14;;;;;;;5.20;2.93;;;2.30;99.90;;;;;;5054354;28;20446;-81
2022/11/26 07:13:41;;;;;;;4.80;3.77;;;;;;;;;;5058076;28;20451;-78
2022/11/26 07:16:11;;;;;;;3.53;2.90;;;;;;;;;;5052528;28;20871;-81
2022/11/26 07:18:38;;;;;;;4.20;2.53;;;;;;;;;;5052959;28;20558;-82
2022/11/26 07:21:05;;;;;;;4.07;3.20;;;;;;;;;;5052818;28;20454;-80
2022/11/26 07:23:34;;;;;;;5.27;3.50;;;;;;;;;;5052693;28;20451;-78
2022/11/26 07:26:02;;;;;;;2.77;2.57;;;;;;;;;;5054324;28;20453;-78
2022/11/26 07:28:29;;;;;;;5.57;3.30;;;;;;;;;;5056966;28;20450;-81
2022/11/26 07:31:00;;;;;;;7.60;3.47;;;;;;;;;;5056871;28;21306;-81
2022/11/26 07:33:27;;;;;;;8.33;3.40;;;;;;;;;;5056391;28;20451;-79
2022/11/26 07:35:54;;;;;;;5.63;2.97;;;;;;;;;;5056565;28;20497;-80
2022/11/26 07:38:21;;;;;;;4.80;3.00;;;;;;;;;;5056455;28;20450;-78
2022/11/26 07:40:50;;;;;;;6.43;3.13;;;;;;;;;;5056676;28;20469;-79
2022/11/26 07:43:17;;;;;;;6.53;3.90;;;;;;;;;;5056477;28;20446;-78
2022/11/26 07:45:44;;;;;;;4.73;3.50;;;;;;;;;;5056516;28;20789;-78
2022/11/26 07:48:11;;;;;;;6.20;4.17;;;;;;;;;;5055143;28;20457;-78
2022/11/26 07:50:38;;;;;;;7.60;4.13;;;;;;;;;;5056565;28;20446;-79
2022/11/26 07:53:05;;;;;;;8.37;4.03;;;;;;;;;;5056282;28;20450;-80
2022/11/26 07:55:33;;;;;;;11.20;4.47;;;;;;;;;;5056274;28;20497;-79
2022/11/26 07:58:01;;;;;;;6.20;4.07;;;;;;;;;;5056408;28;20484;-79
2022/11/26 08:00:28;;;;;;;10.87;4.50;;;;;;;;;;5056225;28;20453;-79
2022/11/26 08:02:56;;;;;;;6.57;4.93;;;;;;;;;;5054936;28;20443;-80
2022/11/26 08:05:23;;;;;;;10.80;4.47;;;;;;;;;;5056169;28;20450;-78
2022/11/26 08:07:50;;;;;;;5.13;3.50;;;;;;;;;;5056032;28;20446;-81
2022/11/26 08:10:17;;;;;;;8.10;4.77;;;;;;;;;;5055915;28;20484;-81
2022/11/26 08:12:44;;;;;;;3.70;3.33;;;;;;;;;;5056017;28;20450;-79
2022/11/26 08:15:13;;;;;;;6.53;3.93;;;;;;;;;;5055918;28;20572;-80
2022/11/26 08:17:40;;;;;;;8.00;4.97;;;;;;;;;;5054916;28;20450;-82
2022/11/26 08:20:08;;;;;;;11.60;4.73;;;;;;;;;;5054539;28;20486;-81
2022/11/26 08:22:35;;;;;;;7.40;4.67;;;;;;;;;;5055748;28;20980;-83
2022/11/26 08:25:02;;;;;;;4.80;4.30;;;;;;;;;;5055772;28;20462;-80
2022/11/26 08:27:32;;;;;;;7.60;4.00;;;;;;;;;;5055889;28;20447;-83
2022/11/26 08:29:59;;;;;;;6.20;3.83;;;;;;;;;;5055703;28;20937;-81
2022/11/26 08:32:27;;;;;;;9.83;5.30;;;;;;;;;;5054428;28;20449;-82
2022/11/26 08:34:54;;;;;;;7.07;4.77;;;;;;;;;;5055486;28;20490;-83
2022/11/26 08:37:21;;;;;;;8.27;4.93;;;;;;;;;;5054741;28;20566;-82
2022/11/26 08:39:48;;;;;;;6.23;4.57;;;;;;;;;;5055516;28;20957;-80
2022/11/26 08:42:15;;;;;;;8.70;5.77;;;;;;;;;;5055483;28;20812;-79
2022/11/26 08:44:42;;;;;;;19.87;17.77;;;;;;;;;;5055372;28;20481;-81
2022/11/26 08:47:10;;;;;;;39.57;31.93;;;;;;;;;;5054011;28;20465;-81
2022/11/26 08:49:38;;;;;;;21.00;15.77;;;;;;;;;;5055309;28;20453;-79
2022/11/26 08:52:06;;;;;;;12.30;8.97;;;;;;;;;;5055264;28;20458;-81
2022/11/26 08:54:33;;;;;;;13.93;7.83;;;;;;;;;;5055207;28;20454;-79
2022/11/26 08:57:00;;;;;;;35.50;24.20;;;;;;;;;;5055166;28;20453;-82
2022/11/26 08:59:27;;;;;;;38.80;24.73;;;;;;;;;;5055026;28;20796;-79
2022/11/26 09:01:54;;;;;;;76.03;58.43;;;;;;;;;;5053831;28;20451;-81
2022/11/26 09:04:21;;;;;;;151.33;70.70;;;;;;;;;;5055106;28;20454;-80
2022/11/26 09:06:50;;;;;;;87.40;65.13;;;;;;;;;;5054886;28;20957;-79
2022/11/26 09:09:17;;;;;;;58.60;47.53;;;;;;;;;;5051527;28;20474;-78
2022/11/26 09:11:45;;;;;;;64.63;49.17;;;;;;;;;;5054719;28;20453;-79
2022/11/26 09:14:14;;;;;;;31.23;28.33;;;10.80;99.90;;;;;;5053951;28;20960;-79
2022/11/26 09:16:41;;;;;;;112.70;59.60;;;;;;;;;;5053249;28;20490;-79
2022/11/26 09:19:08;;;;;;;39.47;35.67;;;;;;;;;;5054515;28;20954;-79
2022/11/26 09:21:35;;;;;;;85.33;60.13;;;;;;;;;;5054726;28;20483;-79
2022/11/26 09:24:05;;;;;;;79.23;55.70;;;;;;;;;;5054652;28;20462;-81
2022/11/26 09:26:32;;;;;;;92.40;56.80;;;;;;;;;;5054636;28;20458;-79
2022/11/26 09:28:59;;;;;;;101.07;60.53;;;;;;;;;;5054462;28;20887;-85
2022/11/26 09:31:26;;;;;;;186.47;81.30;;;;;;;;;;5053344;28;20446;-81
2022/11/26 09:33:56;;;;;;;61.93;47.97;;;;;;;;;;5054459;28;20461;-80
2022/11/26 09:36:23;;;;;;;25.63;23.50;;;;;;;;;;5054535;28;20486;-80
2022/11/26 09:38:54;;;;;;;31.87;29.23;;;13.00;99.90;;;;;;5054439;28;20453;-80
2022/11/26 09:41:31;;;;;;;23.40;21.40;;;;;;;;;;5054300;28;20442;-80
2022/11/26 09:44:05;;;;;;;19.90;18.33;;;;;;;;;;5054251;28;20841;-78
2022/11/26 09:46:37;;;;;;;23.57;21.83;;;12.60;99.90;;;;;;5053120;28;20447;-87
2022/11/26 09:49:04;;;;;;;17.53;16.10;;;;;;;;;;5053413;28;20446;-89
2022/11/26 09:51:34;;;;;;;13.90;12.73;;;13.30;99.90;;;;;;5054214;28;20671;-86
2022/11/26 09:54:04;;;;;;;12.90;11.93;;;13.10;99.90;;;;;;5054119;28;20442;-87
2022/11/26 09:56:33;;;;;;;19.07;17.47;;;;;;;;;;5054110;28;20494;-81
2022/11/26 09:59:05;;;;;;;22.50;20.60;;;14.10;99.90;;;;;;5054077;28;20481;-79
2022/11/26 10:01:33;;;;;;;27.80;25.57;;;13.60;99.90;;;;;;5052817;28;20446;-81
2022/11/26 10:04:00;;;;;;;66.77;49.90;;;;;;;;;;5054004;28;20449;-78
2022/11/26 10:06:37;;;;;;;69.47;53.00;;;13.40;99.90;;;;;;5053866;28;20452;-80
2022/11/26 10:09:11;;;;;;;128.77;69.50;;;;;;;;;;5053624;28;20485;-78
2022/11/26 10:11:48;;;;;;;36.23;30.63;;;13.50;99.90;;;;;;5053841;28;20461;-79
2022/11/26 10:14:24;;;;;;;40.50;36.20;;;;;;;;;;5053802;28;20476;-79
2022/11/26 10:17:00;;;;;;;115.87;70.10;;;;;;;;;;5052931;28;20996;-77
2022/11/26 10:19:29;;;;;;;47.60;43.00;;;;;;;;;;5053751;28;20949;-77
2022/11/26 10:22:00;;;;;;;49.30;43.90;;;11.30;99.90;;;;;;5053709;28;20965;-77
2022/11/26 10:24:31;;;;;;;11.33;8.43;;;;;;;;;;5053541;28;20447;-79
2022/11/26 10:27:01;;;;;;;5.37;4.40;;;10.70;99.90;;;;;;5053488;28;20458;-78
2022/11/26 10:29:34;;;;;;;16.73;15.00;;;11.20;99.90;;;;;;5053408;28;20450;-82
2022/11/26 10:32:13;;;;;;;7.03;4.20;;;11.20;99.90;;;;;;5052239;28;20480;-78
2022/11/26 10:34:43;;;;;;;9.40;6.07;;;;;;;;;;5053234;28;20446;-79
2022/11/26 10:37:10;;;;;;;11.30;5.33;;;;;;;;;;5053297;28;20490;-76
2022/11/26 10:39:37;;;;;;;6.10;4.97;;;;;;;;;;5053348;28;20773;-78
2022/11/26 10:42:10;;;;;;;6.30;4.80;;;;;;;;;;5053207;28;20450;-81
2022/11/26 10:44:39;;;;;;;10.30;4.00;;;10.30;99.90;;;;;;5053287;28;20786;-79
2022/11/26 10:47:21;;;;;;;10.03;4.20;;;;;;;;;;5052160;28;20450;-81
2022/11/26 10:49:48;;;;;;;8.63;7.80;;;;;;;;;;5053099;28;20450;-79
2022/11/26 10:52:17;;;;;;;6.80;5.93;;;;;;;;;;5052959;28;20451;-78
2022/11/26 10:54:46;;;;;;;5.63;4.13;;;;;;;;;;5053027;28;20450;-80
2022/11/26 10:57:17;;;;;;;4.73;3.70;;;10.80;99.90;;;;;;5052942;28;20588;-80
2022/11/26 10:59:50;;;;;;;30.17;27.30;;;11.60;99.90;;;;;;5052972;28;20454;-79
2022/11/26 11:02:30;;;;;;;39.27;33.50;;;11.70;99.90;;;;;;5051503;28;20447;-79
2022/11/26 11:04:59;;;;;;;42.63;38.20;;;11.80;99.90;;;;;;5052906;28;20779;-79
2022/11/26 11:07:33;;;;;;;15.37;14.00;;;11.90;99.90;;;;;;5053269;28;20545;-82
2022/11/26 11:10:05;;;;;;;50.53;33.93;;;12.20;99.90;;;;;;5052612;28;20479;-80
2022/11/26 11:12:35;;;;;;;123.43;62.27;;;;;;;;;;5050356;28;20541;-78
2022/11/26 11:15:21;;;;;;;136.37;67.20;;;13.30;99.90;;;;;;5052156;28;20447;-84
2022/11/26 11:17:54;;;;;;;54.17;43.60;;;;;;;;;;5051042;28;20442;-80
2022/11/26 11:20:30;;;;;;;150.30;70.53;;;13.80;99.90;;;;;;5052271;28;20521;-78
2022/11/26 11:23:04;;;;;;;34.33;29.07;;;13.60;99.90;;;;;;5044948;28;20442;-78
2022/11/26 11:25:32;;;;;;;8.97;7.67;;;;;;;;;;5042531;28;20456;-79
2022/11/26 11:28:09;;;;;;;10.10;8.40;;;;;;;;;;5043706;28;20463;-78
2022/11/26 11:30:37;;;;;;;12.90;9.83;;;;;;;;;;5033963;28;20832;-78
2022/11/26 11:33:22;;;;;;;51.97;31.43;;;13.70;99.90;;;;;;5050974;28;20442;-77
2022/11/26 11:35:59;;;;;;;5.30;4.40;;;;;;;;;;5052066;28;20577;-77
2022/11/26 11:38:28;;;;;;;8.50;7.20;;;;;;;;;;5052305;28;20442;-78
2022/11/26 11:40:55;;;;;;;15.60;7.83;;;;;;;;;;5052003;28;20446;-80
2022/11/26 11:43:25;;;;;;;12.07;4.50;;;;;;;;;;5051900;28;20466;-77
2022/11/26 11:46:07;;;;;;;7.10;5.43;;;;;;;;;;5049591;28;20509;-80
2022/11/26 11:48:42;;;;;;;10.60;9.30;;;;;;;;;;5051873;28;20442;-77
2022/11/26 11:51:12;;;;;;;9.73;8.87;;;;;;;;;;5051864;28;20545;-77
2022/11/26 11:53:49;;;;;;;14.63;7.70;;;14.80;99.90;;;;;;5051969;28;20443;-80
2022/11/26 11:56:32;;;;;;;23.37;20.00;;;;;;;;;;5051907;28;21020;-79
2022/11/26 12:00:08;;;;;;;111.20;61.03;;;15.10;99.90;;;;;;5051876;28;20458;-81
2022/11/26 12:02:43;;;;;;;7.93;7.13;;;;;;;;;;5050782;28;20450;-79
2022/11/26 12:05:26;;;;;;;16.67;15.03;;;;;;;;;;5051491;28;20449;-78
2022/11/26 12:07:55;;;;;;;11.30;9.90;;;;;;;;;;5051663;28;20442;-82
2022/11/26 12:10:27;;;;;;;91.60;57.00;;;14.60;99.90;;;;;;5051544;28;20474;-78
2022/11/26 12:12:58;;;;;;;86.20;53.10;;;15.00;99.90;;;;;;5052764;28;20454;-75
2022/11/26 12:15:29;;;;;;;70.90;46.87;;;15.10;99.90;;;;;;5055284;28;20446;-78
2022/11/26 12:18:04;;;;;;;101.27;64.27;;;15.30;99.90;;;;;;5054032;28;20818;-76
2022/11/26 12:20:34;;;;;;;50.03;44.63;;;15.00;99.90;;;;;;5055413;28;20980;-77
2022/11/26 12:23:07;;;;;;;9.53;6.00;;;;;;;;;;5055374;28;20453;-81
2022/11/26 12:25:36;;;;;;;8.60;6.93;;;15.40;99.90;;;;;;5055136;28;20458;-81
2022/11/26 12:28:06;;;;;;;8.03;6.13;;;;;;;;;;5055511;28;20460;-81
2022/11/26 12:30:39;;;;;;;10.30;3.83;;;;;;;;;;5055608;28;20454;-83
2022/11/26 12:33:13;;;;;;;5.70;3.27;;;14.50;99.90;;;;;;5054334;28;20446;-83
2022/11/26 12:35:44;;;;;;;5.73;3.37;;;15.10;99.90;;;;;;5055328;28;20455;-79
2022/11/26 12:38:17;;;;;;;8.37;4.27;;;14.90;99.90;;;;;;5055598;28;20446;-77
2022/11/26 12:40:49;;;;;;;6.03;3.67;;;15.10;99.90;;;;;;5055354;28;20457;-78
2022/11/26 12:43:20;;;;;;;11.70;2.97;;;14.90;99.90;;;;;;5055256;28;20477;-78
2022/11/26 12:45:53;;;;;;;4.27;2.20;;;15.40;99.90;;;;;;5055410;28;20447;-77
2022/11/26 12:48:35;;;;;;;4.10;3.07;;;15.00;99.90;;;;;;5054069;28;20450;-77
2022/11/26 12:51:09;;;;;;;6.23;4.20;;;;;;;;;;5055248;28;20438;-79
2022/11/26 12:53:43;;;;;;;3.07;2.17;;;15.30;99.90;;;;;;5054831;28;20846;-79
2022/11/26 12:56:17;;;;;;;4.93;2.50;;;15.00;99.90;;;;;;5055079;28;20504;-76
2022/11/26 12:58:47;;;;;;;7.37;4.20;;;;;;;;;;5055142;28;20449;-78
2022/11/26 13:01:16;;;;;;;97.67;65.53;;;;;;;;;;5053677;28;20450;-79
2022/11/26 13:03:43;;;;;;;46.83;42.20;;;;;;;;;;5054875;28;20477;-79
2022/11/26 13:06:15;;;;;;;31.03;28.30;;;;;;;;;;5055151;28;20451;-81
2022/11/26 13:08:51;;;;;;;45.67;40.73;;;14.70;99.90;;;;;;5055193;28;20471;-80
2022/11/26 13:11:27;;;;;;;59.27;48.47;;;;;;;;;;5055302;28;20453;-81
2022/11/26 13:13:58;;;;;;;22.60;20.70;;;;;;;;;;5055025;28;20446;-81
2022/11/26 13:16:33;;;;;;;66.30;59.10;;;;;;;;;;5053514;28;20532;-79
2022/11/26 13:19:03;;;;;;;165.73;74.70;;;13.90;99.90;;;;;;5055951;28;20470;-81
2022/11/26 13:21:49;;;;;;;146.97;70.83;;;14.50;99.90;;;;;;5058146;28;20461;-78
2022/11/26 13:24:29;;;;;;;190.97;80.27;;;;;;;;;;5052794;28;20473;-83
2022/11/26 13:27:13;;;;;;;54.03;27.37;;;12.20;99.70;;;;;;5054567;28;20806;-79
2022/11/26 13:29:58;;;;;;;14.17;12.80;;;;;;;;;;5054532;28;20446;-78
2022/11/26 13:32:58;;;;;;;69.00;44.37;;;11.30;99.90;;;;;;5053177;28;20442;-78
2022/11/26 13:35:36;;;;;;;30.40;25.50;;;;;;;;;;5037148;28;20447;-76
2022/11/26 13:38:20;;;;;;;111.37;57.30;;;;;;;;;;5054261;28;20494;-76
2022/11/26 13:41:21;;;;;;;45.97;40.73;;;12.30;99.90;;;;;;5054257;28;20446;-74
2022/11/26 13:44:36;;;;;;;151.60;68.03;;;13.10;99.90;;;;;;5054165;28;20948;-76
2022/11/26 13:47:05;;;;;;;171.07;74.67;;;;;;;;;;5011019;28;20440;-76
2022/11/26 13:49:35;;;;;;;157.00;69.57;;;;;;;;;;5012203;28;20468;-75
2022/11/26 13:52:09;;;;;;;179.73;76.60;;;13.50;99.90;;;;;;5036506;28;20453;-75
2022/11/26 13:54:38;;;;;;;200.60;80.80;;;;;;;;;;5053893;28;20485;-75
2022/11/26 13:57:07;;;;;;;200.93;80.73;;;;;;;;;;5053788;28;20493;-75
2022/11/26 13:59:35;;;;;;;27.23;24.37;;;;;;;;;;5053803;28;20450;-75
2022/11/26 14:02:36;;;;;;;3.93;2.47;;;13.70;99.80;;;;;;5052639;28;20826;-75
2022/11/26 14:05:04;;;;;;;7.20;2.80;;;13.90;95.00;;;;;;5053797;28;20942;-75
2022/11/26 14:07:33;;;;;;;6.30;2.73;;;;;;;;;;5053779;28;20449;-75
2022/11/26 14:10:01;;;;;;;5.00;2.37;;;;;;;;;;5053412;28;20478;-76
2022/11/26 14:13:00;;;;;;;4.40;2.90;;;13.70;96.30;;;;;;5053581;28;20839;-77
2022/11/26 14:15:58;;;;;;;8.00;3.97;;;14.30;98.90;;;;;;5046437;28;20454;-77
2022/11/26 14:18:57;;;;;;;9.20;3.20;;;14.00;95.90;;;;;;5052244;28;20466;-76
2022/11/26 14:21:24;;;;;;;5.20;2.97;;;;;;;;;;5053556;28;20446;-75
2022/11/26 14:23:54;;;;;;;8.73;3.40;;;14.20;99.60;;;;;;5053516;28;20453;-76
2022/11/26 14:26:27;;;;;;;5.97;3.03;;;14.60;98.00;;;;;;5053495;28;20478;-78
2022/11/26 14:29:04;;;;;;;9.80;3.33;;;14.50;97.30;;;;;;5053436;28;20455;-79